createdAt,value
2018-12-14T00:00:46.646Z,5.50
2018-12-14T00:03:14.086Z,6.00
2018-12-14T00:05:41.508Z,7.30
2018-12-14T00:08:08.946Z,5.77
2018-12-14T00:10:36.418Z,7.53
2018-12-14T00:13:03.873Z,6.08
2018-12-14T00:15:31.327Z,6.47
2018-12-14T00:17:58.742Z,6.60
2018-12-14T00:20:26.199Z,8.98
2018-12-14T00:22:53.636Z,6.57
2018-12-14T00:25:21.082Z,6.77
2018-12-14T00:27:48.518Z,6.75
2018-12-14T00:30:15.975Z,6.27
2018-12-14T00:32:43.501Z,6.47
2018-12-14T00:35:10.943Z,8.37
2018-12-14T00:37:38.367Z,7.00
2018-12-14T00:40:05.871Z,6.77
2018-12-14T00:42:33.314Z,6.12
2018-12-14T00:45:00.723Z,8.07
2018-12-14T00:47:28.228Z,7.17
2018-12-14T00:49:55.640Z,7.55
2018-12-14T00:52:23.080Z,7.53
2018-12-14T00:54:50.642Z,7.87
2018-12-14T00:57:18.139Z,7.60
2018-12-14T00:59:45.667Z,9.70
2018-12-14T01:02:18.781Z,10.93
2018-12-14T01:04:46.249Z,7.43
2018-12-14T01:07:13.698Z,9.30
2018-12-14T01:09:41.123Z,11.63
2018-12-14T01:12:08.537Z,7.73
2018-12-14T01:14:35.989Z,12.10
2018-12-14T01:17:03.475Z,11.27
2018-12-14T01:19:30.885Z,8.60
2018-12-14T01:21:58.322Z,13.53
2018-12-14T01:24:25.767Z,11.45
2018-12-14T01:26:53.194Z,12.30
2018-12-14T01:29:20.694Z,11.03
2018-12-14T01:31:48.093Z,10.17
2018-12-14T01:34:15.664Z,12.73
2018-12-14T01:36:43.086Z,10.58
2018-12-14T01:39:10.497Z,12.67
2018-12-14T01:41:37.930Z,14.50
2018-12-14T01:44:05.393Z,11.30
2018-12-14T01:46:32.811Z,11.40
2018-12-14T01:49:00.246Z,11.67
2018-12-14T01:51:27.701Z,8.47
2018-12-14T01:53:55.145Z,13.05
2018-12-14T01:56:22.585Z,10.27
2018-12-14T01:58:49.991Z,11.00
2018-12-14T02:01:17.429Z,12.57
2018-12-14T02:03:44.889Z,16.55
2018-12-14T02:06:12.307Z,11.97
2018-12-14T02:08:39.718Z,12.18
2018-12-14T02:11:07.143Z,11.00
2018-12-14T02:13:34.575Z,13.10
2018-12-14T02:16:02.049Z,10.37
2018-12-14T02:18:29.621Z,12.30
2018-12-14T02:20:57.043Z,15.43
2018-12-14T02:23:24.487Z,13.10
2018-12-14T02:25:51.913Z,14.67
2018-12-14T02:28:19.353Z,13.93
2018-12-14T02:30:46.851Z,15.28
2018-12-14T02:33:14.415Z,15.73
2018-12-14T02:35:41.867Z,15.57
2018-12-14T02:38:09.296Z,13.60
2018-12-14T02:40:36.754Z,15.57
2018-12-14T02:43:04.206Z,14.97
2018-12-14T02:45:31.652Z,15.27
2018-12-14T02:47:59.056Z,12.43
2018-12-14T02:50:26.512Z,13.60
2018-12-14T02:52:53.931Z,10.98
2018-12-14T02:55:21.402Z,13.28
2018-12-14T02:57:48.928Z,16.00
2018-12-14T03:00:16.457Z,13.68
2018-12-14T03:02:43.887Z,12.00
2018-12-14T03:05:11.345Z,13.90
2018-12-14T03:07:38.800Z,10.27
2018-12-14T03:10:06.598Z,15.30
2018-12-14T03:12:34.098Z,13.78
2018-12-14T03:15:01.559Z,9.40
2018-12-14T03:17:29.044Z,17.27
2018-12-14T03:19:56.633Z,12.10
2018-12-14T03:22:24.595Z,10.58
2018-12-14T03:24:52.044Z,12.43
2018-12-14T03:27:19.501Z,11.65
2018-12-14T03:29:46.998Z,16.95
2018-12-14T03:32:14.465Z,11.27
2018-12-14T03:34:41.903Z,13.50
2018-12-14T03:37:09.323Z,16.43
2018-12-14T03:39:36.759Z,12.43
2018-12-14T03:42:04.211Z,12.23
2018-12-14T03:44:31.668Z,16.77
2018-12-14T03:46:59.386Z,18.37
2018-12-14T03:49:26.846Z,17.35
2018-12-14T03:51:54.268Z,14.73
2018-12-14T03:54:21.741Z,12.18
2018-12-14T03:56:49.176Z,13.80
2018-12-14T03:59:16.612Z,13.03
2018-12-14T04:01:44.089Z,12.33
2018-12-14T04:04:11.547Z,13.47
2018-12-14T04:06:38.996Z,11.33
2018-12-14T04:09:06.480Z,10.60
2018-12-14T04:11:34.028Z,12.88
2018-12-14T04:14:01.487Z,11.20
2018-12-14T04:16:28.938Z,13.33
2018-12-14T04:18:56.448Z,13.78
2018-12-14T04:21:23.890Z,14.37
2018-12-14T04:23:51.436Z,14.20
2018-12-14T04:26:18.859Z,11.10
2018-12-14T04:28:46.282Z,9.60
2018-12-14T04:31:13.706Z,14.15
2018-12-14T04:33:41.620Z,12.40
2018-12-14T04:36:09.064Z,15.85
2018-12-14T04:38:36.512Z,12.50
2018-12-14T04:41:03.952Z,13.73
2018-12-14T04:43:31.390Z,13.22
2018-12-14T04:45:58.819Z,16.03
2018-12-14T04:48:26.265Z,15.10
2018-12-14T04:50:53.702Z,11.30
2018-12-14T04:53:21.142Z,11.50
2018-12-14T04:55:48.592Z,11.13
2018-12-14T04:58:16.032Z,10.30
2018-12-14T05:00:43.457Z,10.37
2018-12-14T05:03:10.873Z,9.60
2018-12-14T05:05:38.420Z,9.10
2018-12-14T05:08:05.905Z,10.70
2018-12-14T05:10:33.372Z,8.20
2018-12-14T05:13:00.797Z,9.67
2018-12-14T05:15:28.236Z,11.03
2018-12-14T05:17:55.674Z,9.57
2018-12-14T05:20:23.111Z,7.97
2018-12-14T05:22:50.555Z,11.13
2018-12-14T05:25:17.989Z,10.53
2018-12-14T05:27:45.476Z,9.07
2018-12-14T05:30:13.264Z,13.20
2018-12-14T05:32:40.697Z,11.80
2018-12-14T05:35:08.182Z,15.97
2018-12-14T05:37:35.635Z,8.53
2018-12-14T05:40:03.090Z,7.93
2018-12-14T05:42:30.569Z,8.60
2018-12-14T05:44:58.035Z,8.80
2018-12-14T05:47:25.466Z,9.35
2018-12-14T05:49:52.894Z,12.35
2018-12-14T05:52:20.371Z,10.50
2018-12-14T05:54:47.821Z,9.78
2018-12-14T05:57:15.283Z,17.40
2018-12-14T05:59:42.699Z,8.25
2018-12-14T06:02:10.181Z,11.22
2018-12-14T06:04:37.649Z,11.68
2018-12-14T06:07:05.119Z,10.30
2018-12-14T06:09:32.555Z,10.90
2018-12-14T06:12:00.073Z,13.33
2018-12-14T06:14:27.507Z,8.40
2018-12-14T06:16:55.002Z,14.03
2018-12-14T06:19:22.423Z,12.17
2018-12-14T06:21:49.843Z,10.57
2018-12-14T06:24:17.305Z,11.93
2018-12-14T06:26:44.782Z,11.45
2018-12-14T06:29:12.225Z,10.10
2018-12-14T06:31:39.710Z,12.10
2018-12-14T06:34:07.132Z,10.18
2018-12-14T06:36:35.390Z,11.30
2018-12-14T06:39:03.639Z,12.00
2018-12-14T06:41:31.106Z,12.80
2018-12-14T06:43:58.543Z,12.10
2018-12-14T06:46:25.975Z,12.10
2018-12-14T06:48:53.420Z,11.87
2018-12-14T06:51:20.864Z,10.98
2018-12-14T06:53:48.283Z,14.70
2018-12-14T06:56:15.700Z,12.70
2018-12-14T06:58:43.167Z,12.73
2018-12-14T07:01:10.588Z,21.20
2018-12-14T07:03:38.035Z,13.67
2018-12-14T07:06:05.449Z,14.03
2018-12-14T07:08:32.904Z,10.70
2018-12-14T07:11:00.388Z,13.47
2018-12-14T07:13:27.810Z,15.00
2018-12-14T07:15:55.227Z,13.55
2018-12-14T07:18:22.655Z,17.20
2018-12-14T07:20:50.307Z,14.63
2018-12-14T07:23:17.724Z,14.57
2018-12-14T07:25:45.155Z,13.57
2018-12-14T07:28:12.580Z,13.30
2018-12-14T07:30:40.000Z,16.40
2018-12-14T07:33:07.428Z,12.30
2018-12-14T07:35:34.867Z,14.87
2018-12-14T07:38:02.329Z,15.05
2018-12-14T07:40:29.776Z,19.47
2018-12-14T07:42:57.204Z,14.67
2018-12-14T07:45:24.649Z,14.17
2018-12-14T07:47:52.188Z,13.53
2018-12-14T07:50:19.631Z,16.67
2018-12-14T07:52:47.047Z,19.87
2018-12-14T07:55:14.503Z,14.80
2018-12-14T07:57:41.924Z,16.77
2018-12-14T08:00:09.403Z,18.10
2018-12-14T08:02:36.878Z,14.63
2018-12-14T08:05:05.070Z,16.17
2018-12-14T08:07:32.500Z,14.40
2018-12-14T08:09:59.921Z,14.95
2018-12-14T08:12:28.356Z,16.45
2018-12-14T08:14:55.778Z,17.42
2018-12-14T08:17:23.190Z,17.62
2018-12-14T08:19:50.602Z,15.65
2018-12-14T08:22:18.056Z,14.60
2018-12-14T08:24:45.507Z,20.40
2018-12-14T08:27:13.029Z,15.35
2018-12-14T08:29:40.425Z,15.18
2018-12-14T08:32:07.903Z,17.07
2018-12-14T08:34:35.385Z,14.28
2018-12-14T08:37:02.840Z,17.43
2018-12-14T08:39:30.277Z,14.10
2018-12-14T08:41:57.735Z,19.87
2018-12-14T08:44:25.154Z,15.63
2018-12-14T08:46:52.600Z,18.87
2018-12-14T08:49:20.051Z,16.70
2018-12-14T08:51:47.459Z,11.70
2018-12-14T08:54:14.904Z,13.20
2018-12-14T08:56:42.356Z,15.72
2018-12-14T08:59:09.787Z,15.90
2018-12-14T09:01:37.213Z,14.30
2018-12-14T09:04:04.665Z,12.97
2018-12-14T09:06:32.117Z,10.83
2018-12-14T09:08:59.543Z,12.73
2018-12-14T09:11:26.959Z,13.03
2018-12-14T09:13:54.386Z,14.00
2018-12-14T09:16:21.844Z,12.80
2018-12-14T09:18:49.267Z,14.25
2018-12-14T09:21:16.687Z,13.50
2018-12-14T09:23:44.142Z,14.07
2018-12-14T09:26:11.607Z,13.72
2018-12-14T09:28:39.045Z,14.50
2018-12-14T09:31:06.471Z,14.10
2018-12-14T09:33:33.923Z,14.07
2018-12-14T09:36:01.447Z,13.30
2018-12-14T09:38:28.864Z,11.40
2018-12-14T09:40:56.329Z,11.37
2018-12-14T09:43:23.776Z,13.47
2018-12-14T09:45:51.200Z,11.20
2018-12-14T09:48:18.619Z,12.10
2018-12-14T09:50:46.192Z,10.35
2018-12-14T09:53:13.641Z,10.30
2018-12-14T09:55:41.188Z,11.47
2018-12-14T09:58:08.614Z,10.77
2018-12-14T10:00:36.100Z,9.33
2018-12-14T10:03:03.561Z,11.05
2018-12-14T10:05:30.956Z,8.87
2018-12-14T10:07:59.098Z,12.23
2018-12-14T10:10:26.543Z,10.90
2018-12-14T10:12:53.955Z,12.05
2018-12-14T10:15:21.373Z,9.53
2018-12-14T10:17:48.781Z,8.30
2018-12-14T10:20:16.210Z,7.03
2018-12-14T10:22:43.652Z,11.17
2018-12-14T10:25:11.095Z,10.67
2018-12-14T10:27:38.511Z,9.63
2018-12-14T10:30:08.270Z,8.10
2018-12-14T10:32:35.688Z,10.90
2018-12-14T10:35:03.964Z,9.03
2018-12-14T10:37:31.368Z,8.10
2018-12-14T10:39:58.879Z,8.53
2018-12-14T10:42:26.343Z,8.48
2018-12-14T10:44:53.784Z,9.23
2018-12-14T10:47:21.231Z,10.25
2018-12-14T10:49:48.665Z,9.50
2018-12-14T10:52:16.117Z,9.68
2018-12-14T10:54:43.767Z,10.38
2018-12-14T10:57:16.145Z,8.80
2018-12-14T10:59:40.839Z,9.40
2018-12-14T11:02:08.292Z,9.70
2018-12-14T11:04:35.699Z,8.50
2018-12-14T11:07:03.126Z,8.40
2018-12-14T11:09:30.568Z,8.20
2018-12-14T11:11:58.026Z,9.40
2018-12-14T11:14:25.466Z,12.13
2018-12-14T11:16:52.951Z,8.60
2018-12-14T11:19:20.382Z,9.65
2018-12-14T11:21:47.811Z,11.17
2018-12-14T11:24:15.262Z,9.50
2018-12-14T11:26:42.687Z,9.85
2018-12-14T11:29:10.103Z,9.33
2018-12-14T11:31:37.535Z,9.70
2018-12-14T11:34:04.963Z,8.40
2018-12-14T11:36:32.392Z,9.33
2018-12-14T11:38:59.816Z,9.17
2018-12-14T11:41:27.572Z,9.03
2018-12-14T11:43:55.026Z,8.67
2018-12-14T11:46:22.429Z,10.30
2018-12-14T11:48:49.860Z,8.03
2018-12-14T11:51:17.292Z,8.80
2018-12-14T11:53:44.742Z,8.60
2018-12-14T11:56:12.192Z,11.50
2018-12-14T11:58:39.622Z,8.83
2018-12-14T12:01:07.066Z,9.33
2018-12-14T12:03:34.465Z,9.30
2018-12-14T12:06:01.897Z,10.18
2018-12-14T12:08:29.320Z,8.13
2018-12-14T12:10:56.727Z,9.90
2018-12-14T12:13:24.176Z,9.40
2018-12-14T12:15:51.607Z,9.60
2018-12-14T12:18:19.040Z,10.50
2018-12-14T12:20:46.482Z,11.22
2018-12-14T12:23:13.926Z,14.20
2018-12-14T12:25:41.348Z,10.98
2018-12-14T12:28:08.792Z,9.20
2018-12-14T12:30:36.219Z,9.63
2018-12-14T12:33:03.641Z,10.50
2018-12-14T12:35:31.088Z,10.00
2018-12-14T12:37:58.541Z,11.17
2018-12-14T12:40:25.984Z,10.23
2018-12-14T12:42:53.426Z,10.17
2018-12-14T12:45:20.910Z,12.60
2018-12-14T12:47:48.323Z,7.60
2018-12-14T12:50:15.735Z,9.77
2018-12-14T12:52:43.151Z,10.23
2018-12-14T12:55:10.598Z,10.37
2018-12-14T12:57:38.012Z,11.50
2018-12-14T13:00:06.075Z,9.53
2018-12-14T13:02:33.488Z,11.47
2018-12-14T13:05:00.924Z,9.03
2018-12-14T13:07:28.343Z,10.57
2018-12-14T13:09:55.767Z,9.48
2018-12-14T13:12:23.715Z,9.95
2018-12-14T13:14:51.128Z,9.73
2018-12-14T13:17:18.589Z,10.82
2018-12-14T13:19:46.016Z,10.08
2018-12-14T13:22:13.422Z,11.35
2018-12-14T13:24:40.851Z,9.00
2018-12-14T13:27:08.303Z,10.82
2018-12-14T13:29:35.745Z,9.87
2018-12-14T13:32:03.212Z,10.70
2018-12-14T13:34:31.570Z,8.65
2018-12-14T13:36:59.000Z,10.33
2018-12-14T13:39:26.451Z,12.60
2018-12-14T13:41:53.967Z,10.10
2018-12-14T13:44:21.921Z,10.83
2018-12-14T13:46:50.222Z,10.00
2018-12-14T13:49:17.897Z,9.60
2018-12-14T13:51:45.397Z,13.20
2018-12-14T13:54:12.816Z,12.00
2018-12-14T13:56:40.243Z,11.07
2018-12-14T13:59:07.686Z,11.60
2018-12-14T14:01:35.138Z,11.63
2018-12-14T14:04:02.571Z,10.93
2018-12-14T14:06:29.985Z,11.43
2018-12-14T14:08:57.409Z,11.60
2018-12-14T14:11:24.864Z,12.03
2018-12-14T14:13:52.353Z,12.18
2018-12-14T14:16:19.792Z,11.13
2018-12-14T14:18:47.232Z,11.77
2018-12-14T14:21:14.704Z,13.80
2018-12-14T14:23:42.124Z,10.70
2018-12-14T14:26:09.558Z,11.83
2018-12-14T14:28:36.979Z,14.37
2018-12-14T14:31:04.427Z,14.53
2018-12-14T14:33:31.936Z,13.53
2018-12-14T14:35:59.410Z,13.60
2018-12-14T14:38:26.860Z,12.67
2018-12-14T14:40:54.289Z,12.70
2018-12-14T14:43:21.711Z,12.20
2018-12-14T14:45:49.127Z,13.17
2018-12-14T14:48:16.677Z,13.08
2018-12-14T14:50:44.121Z,12.37
2018-12-14T14:53:11.592Z,14.77
2018-12-14T14:55:39.007Z,11.95
2018-12-14T14:58:06.421Z,11.90
2018-12-14T15:00:33.880Z,13.00
2018-12-14T15:03:01.398Z,14.23
2018-12-14T15:05:28.855Z,14.07
2018-12-14T15:07:56.314Z,13.23
2018-12-14T15:10:23.727Z,13.67
2018-12-14T15:12:51.155Z,12.03
2018-12-14T15:15:18.600Z,13.17
2018-12-14T15:17:46.019Z,13.83
2018-12-14T15:20:13.517Z,15.00
2018-12-14T15:22:40.926Z,15.30
2018-12-14T15:25:08.352Z,14.97
2018-12-14T15:27:35.804Z,15.03
2018-12-14T15:30:03.676Z,15.00
2018-12-14T15:32:31.225Z,15.15
2018-12-14T15:34:59.303Z,18.57
2018-12-14T15:37:27.026Z,14.60
2018-12-14T15:39:54.476Z,15.53
2018-12-14T15:42:21.883Z,16.65
2018-12-14T15:44:49.312Z,12.30
2018-12-14T15:47:16.774Z,13.75
2018-12-14T15:49:44.202Z,14.68
2018-12-14T15:52:11.627Z,14.45
2018-12-14T15:54:39.053Z,13.68
2018-12-14T15:57:06.464Z,15.73
2018-12-14T15:59:33.889Z,17.07
2018-12-14T16:02:28.173Z,16.55
2018-12-14T16:04:55.816Z,17.80
2018-12-14T16:07:23.244Z,17.43
2018-12-14T16:13:47.734Z,16.85
2018-12-14T16:16:15.301Z,15.18
2018-12-14T16:18:42.770Z,14.55
2018-12-14T16:21:10.272Z,15.40
2018-12-14T16:23:37.705Z,15.75
2018-12-14T16:26:05.217Z,14.55
2018-12-14T16:31:23.098Z,18.70
2018-12-14T16:39:51.251Z,16.62
2018-12-14T16:42:18.699Z,16.75
2018-12-14T16:44:46.056Z,15.65
2018-12-14T16:47:13.450Z,19.85
2018-12-14T16:49:40.834Z,15.45
2018-12-14T16:52:08.240Z,15.68
2018-12-14T16:54:35.641Z,19.25
2018-12-14T16:57:03.045Z,19.77
2018-12-14T16:59:30.425Z,18.80
2018-12-14T17:01:57.823Z,18.87
2018-12-14T17:04:25.249Z,14.90
2018-12-14T17:06:52.697Z,16.75
2018-12-14T17:09:20.090Z,19.20
2018-12-14T17:11:47.481Z,18.17
2018-12-14T17:14:14.867Z,16.35
2018-12-14T17:16:42.276Z,18.60
2018-12-14T17:19:09.646Z,17.42
2018-12-14T17:21:37.031Z,17.82
2018-12-14T17:24:04.426Z,16.90
2018-12-14T17:26:31.793Z,16.80
2018-12-14T17:28:59.174Z,22.93
2018-12-14T17:31:26.577Z,19.85
2018-12-14T17:33:53.970Z,20.73
2018-12-14T17:36:21.346Z,22.20
2018-12-14T17:38:48.738Z,26.80
2018-12-14T17:41:16.177Z,26.93
2018-12-14T17:43:43.565Z,23.57
2018-12-14T17:46:10.943Z,28.32
2018-12-14T17:48:38.411Z,25.33
2018-12-14T17:51:05.796Z,33.77
2018-12-14T17:53:33.179Z,27.70
2018-12-14T17:56:00.574Z,33.97
2018-12-14T17:58:27.950Z,27.10
2018-12-14T18:00:58.372Z,31.45
2018-12-14T18:03:24.724Z,28.57
2018-12-14T18:05:52.093Z,31.53
2018-12-14T18:08:19.505Z,39.53
2018-12-14T18:10:46.878Z,30.43
2018-12-14T18:13:14.261Z,30.70
2018-12-14T18:15:46.351Z,35.53
2018-12-14T18:18:11.925Z,38.02
2018-12-14T18:20:39.345Z,31.37
2018-12-14T18:23:06.737Z,35.40
2018-12-14T18:25:34.229Z,35.28
2018-12-14T18:28:01.610Z,36.47
2018-12-14T18:30:28.999Z,37.50
2018-12-14T18:32:56.465Z,37.00
2018-12-14T18:35:23.894Z,33.27
2018-12-14T18:37:51.290Z,31.10
2018-12-14T18:40:18.685Z,32.78
2018-12-14T18:42:46.160Z,32.67
2018-12-14T18:45:13.528Z,32.07
2018-12-14T18:47:40.926Z,30.97
2018-12-14T18:50:08.313Z,29.47
2018-12-14T18:52:35.690Z,30.60
2018-12-14T18:55:03.089Z,31.33
2018-12-14T18:57:30.534Z,33.23
2018-12-14T18:59:57.935Z,36.33
2018-12-14T19:02:25.607Z,30.10
2018-12-14T19:04:53.010Z,30.50
2018-12-14T19:07:20.398Z,32.83
2018-12-14T19:09:48.108Z,35.97
2018-12-14T19:12:15.666Z,31.82
2018-12-14T19:14:43.074Z,32.87
2018-12-14T19:17:10.466Z,28.50
2018-12-14T19:19:37.877Z,37.55
2018-12-14T19:22:05.311Z,29.73
2018-12-14T19:24:32.698Z,32.33
2018-12-14T19:27:00.069Z,30.87
2018-12-14T19:29:27.459Z,32.05
2018-12-14T19:31:54.883Z,33.63
2018-12-14T19:34:22.482Z,33.70
2018-12-14T19:36:49.940Z,26.45
2018-12-14T19:39:17.506Z,33.23
2018-12-14T19:41:45.200Z,28.12
2018-12-14T19:44:12.582Z,33.78
2018-12-14T19:46:39.979Z,31.35
2018-12-14T19:49:07.361Z,29.20
2018-12-14T19:51:34.760Z,35.15
2018-12-14T19:54:02.210Z,25.90
2018-12-14T19:56:29.613Z,24.90
2018-12-14T19:58:56.985Z,25.83
2018-12-14T20:01:24.396Z,24.50
2018-12-14T20:03:51.769Z,23.67
2018-12-14T20:06:19.166Z,24.30
2018-12-14T20:08:46.559Z,24.73
2018-12-14T20:11:13.953Z,31.17
2018-12-14T20:13:41.326Z,25.63
2018-12-14T20:16:12.776Z,22.17
2018-12-14T20:18:38.097Z,22.60
2018-12-14T20:22:26.313Z,28.55
2018-12-14T20:24:53.708Z,26.23
2018-12-14T20:27:21.141Z,21.37
2018-12-14T20:29:48.626Z,21.53
2018-12-14T20:32:16.022Z,20.37
2018-12-14T20:34:43.398Z,22.80
2018-12-14T20:37:10.801Z,20.43
2018-12-14T20:39:38.275Z,22.23
2018-12-14T20:42:05.757Z,25.73
2018-12-14T20:44:33.150Z,21.93
2018-12-14T20:47:00.540Z,20.75
2018-12-14T20:49:28.030Z,25.40
2018-12-14T20:51:55.418Z,22.75
2018-12-14T20:54:22.815Z,21.30
2018-12-14T20:56:51.706Z,22.25
2018-12-14T20:59:19.393Z,22.05
2018-12-14T21:01:46.796Z,22.07
2018-12-14T21:04:14.266Z,18.07
2018-12-14T21:06:41.667Z,22.22
2018-12-14T21:09:09.070Z,20.63
2018-12-14T21:11:36.520Z,23.13
2018-12-14T21:14:03.966Z,20.67
2018-12-14T21:16:31.362Z,20.13
2018-12-14T21:18:58.781Z,20.62
2018-12-14T21:21:26.181Z,25.25
2018-12-14T21:23:53.612Z,23.87
2018-12-14T21:26:20.985Z,18.40
2018-12-14T21:28:48.375Z,19.30
2018-12-14T21:31:15.870Z,19.23
2018-12-14T21:33:43.253Z,22.73
2018-12-14T21:36:10.637Z,19.73
2018-12-14T21:38:38.034Z,21.70
2018-12-14T21:41:05.421Z,18.47
2018-12-14T21:43:33.390Z,23.10
2018-12-14T21:46:00.865Z,23.60
2018-12-14T21:48:28.261Z,16.27
2018-12-14T21:50:55.645Z,24.00
2018-12-14T21:53:23.020Z,24.90
2018-12-14T21:55:50.425Z,21.77
2018-12-14T21:58:17.972Z,14.50
2018-12-14T22:00:45.351Z,20.10
2018-12-14T22:03:12.734Z,16.67
2018-12-14T22:05:40.492Z,16.87
2018-12-14T22:08:07.923Z,20.03
2018-12-14T22:10:35.406Z,14.80
2018-12-14T22:13:02.810Z,16.50
2018-12-14T22:15:30.209Z,15.87
2018-12-14T22:17:57.703Z,15.45
2018-12-14T22:20:25.098Z,15.23
2018-12-14T22:22:52.481Z,15.63
2018-12-14T22:25:19.882Z,15.10
2018-12-14T22:27:47.283Z,18.83
2018-12-14T22:30:14.686Z,16.90
2018-12-14T22:32:42.086Z,18.70
2018-12-14T22:35:09.513Z,20.43
2018-12-14T22:37:36.901Z,13.60
2018-12-14T22:40:05.082Z,13.87
2018-12-14T22:42:32.454Z,23.17
2018-12-14T22:44:59.929Z,16.70
2018-12-14T22:47:27.330Z,19.60
2018-12-14T22:49:54.715Z,19.20
2018-12-14T22:52:22.102Z,18.87
2018-12-14T22:54:49.494Z,17.35
2018-12-14T22:57:16.893Z,20.23
2018-12-14T22:59:44.302Z,17.23
2018-12-14T23:02:11.693Z,19.80
2018-12-14T23:04:39.134Z,17.53
2018-12-14T23:07:06.568Z,16.47
2018-12-14T23:09:33.954Z,17.93
2018-12-14T23:12:01.345Z,18.20
2018-12-14T23:14:29.557Z,17.40
2018-12-14T23:16:56.938Z,20.12
2018-12-14T23:19:24.346Z,19.62
2018-12-14T23:21:51.759Z,18.27
2018-12-14T23:24:19.169Z,18.85
2018-12-14T23:26:46.552Z,18.32
2018-12-14T23:29:13.958Z,17.48
2018-12-14T23:31:41.425Z,19.35
2018-12-14T23:34:08.814Z,18.32
2018-12-14T23:36:36.403Z,14.68
2018-12-14T23:39:05.192Z,15.60
2018-12-14T23:41:32.577Z,16.40
2018-12-14T23:43:59.970Z,15.58
2018-12-14T23:46:27.358Z,17.53
2018-12-14T23:48:54.742Z,17.13
2018-12-14T23:51:22.138Z,14.78
2018-12-14T23:53:49.525Z,16.35
2018-12-14T23:56:16.933Z,14.53
2018-12-14T23:58:44.322Z,14.23
